createdAt,value
2019-04-27T00:01:45.314Z,99814.42
2019-04-27T00:04:19.514Z,99821.58
2019-04-27T00:07:07.963Z,99823.13
2019-04-27T00:09:51.236Z,99818.68
2019-04-27T00:12:24.745Z,99821.13
2019-04-27T00:14:55.162Z,99814.81
2019-04-27T00:17:49.012Z,99814.80
2019-04-27T00:20:30.523Z,99820.19
2019-04-27T00:23:08.461Z,99822.03
2019-04-27T00:25:39.139Z,99820.17
2019-04-27T00:28:09.723Z,99816.89
2019-04-27T00:30:40.388Z,99823.47
2019-04-27T00:33:11.037Z,99818.05
2019-04-27T00:35:43.808Z,99818.13
2019-04-27T00:38:34.574Z,99823.10
2019-04-27T00:41:19.058Z,99825.37
2019-04-27T00:43:48.680Z,99824.24
2019-04-27T00:46:19.281Z,99825.66
2019-04-27T00:48:49.942Z,99819.91
2019-04-27T00:51:20.516Z,99820.02
2019-04-27T00:53:51.135Z,99815.62
2019-04-27T00:56:39.728Z,99820.92
2019-04-27T00:59:20.965Z,99816.05
2019-04-27T01:01:55.852Z,99816.40
2019-04-27T01:04:34.052Z,99813.95
2019-04-27T01:07:05.155Z,99805.59
2019-04-27T01:09:35.970Z,99812.41
2019-04-27T01:12:06.728Z,99807.23
2019-04-27T01:14:37.340Z,99806.16
2019-04-27T01:17:08.843Z,99799.30
2019-04-27T01:19:39.598Z,99803.36
2019-04-27T01:22:10.332Z,99800.75
2019-04-27T01:24:40.976Z,99805.80
2019-04-27T01:27:29.264Z,99795.64
2019-04-27T01:30:00.044Z,99798.13
2019-04-27T01:32:32.513Z,99793.03
2019-04-27T01:35:03.247Z,99791.62
2019-04-27T01:37:33.894Z,99792.90
2019-04-27T01:40:04.911Z,99799.41
2019-04-27T01:42:35.622Z,99800.35
2019-04-27T01:45:08.989Z,99799.30
2019-04-27T01:47:39.592Z,99805.65
2019-04-27T01:50:10.470Z,99797.98
2019-04-27T01:52:41.065Z,99800.05
2019-04-27T01:55:11.690Z,99796.98
2019-04-27T01:57:42.409Z,99799.65
2019-04-27T02:00:19.261Z,99791.62
2019-04-27T02:02:51.675Z,99787.37
2019-04-27T02:05:39.174Z,99792.16
2019-04-27T02:08:09.805Z,99792.63
2019-04-27T02:10:40.565Z,99783.45
2019-04-27T02:13:11.127Z,99782.80
2019-04-27T02:15:41.814Z,99785.54
2019-04-27T02:18:12.587Z,99782.08
2019-04-27T02:20:44.560Z,99784.23
2019-04-27T02:23:15.316Z,99784.93
2019-04-27T02:25:45.998Z,99780.48
2019-04-27T02:28:20.863Z,99774.61
2019-04-27T02:31:10.025Z,99779.88
2019-04-27T02:33:42.282Z,99778.78
2019-04-27T02:36:15.212Z,99779.85
2019-04-27T02:38:45.675Z,99788.94
2019-04-27T02:41:16.406Z,99786.67
2019-04-27T02:43:54.563Z,99783.28
2019-04-27T02:46:25.232Z,99782.70
2019-04-27T02:49:00.465Z,99781.77
2019-04-27T02:51:32.434Z,99781.59
2019-04-27T02:54:03.035Z,99787.43
2019-04-27T02:56:33.617Z,99786.09
2019-04-27T02:59:04.203Z,99784.59
2019-04-27T03:01:36.392Z,99787.43
2019-04-27T03:04:07.080Z,99788.77
2019-04-27T03:06:39.902Z,99790.59
2019-04-27T03:09:10.565Z,99788.72
2019-04-27T03:11:41.374Z,99789.70
2019-04-27T03:14:35.781Z,99791.66
2019-04-27T03:17:11.450Z,99788.63
2019-04-27T03:19:52.349Z,99787.69
2019-04-27T03:22:29.631Z,99791.64
2019-04-27T03:25:01.691Z,99799.20
2019-04-27T03:27:37.249Z,99795.69
2019-04-27T03:30:12.115Z,99792.83
2019-04-27T03:32:43.550Z,99782.97
2019-04-27T03:35:14.614Z,99790.73
2019-04-27T03:37:45.450Z,99788.51
2019-04-27T03:40:16.279Z,99785.97
2019-04-27T03:42:50.131Z,99778.59
2019-04-27T03:45:20.961Z,99778.14
2019-04-27T03:47:51.666Z,99780.02
2019-04-27T03:50:23.859Z,99776.81
2019-04-27T03:52:59.869Z,99770.49
2019-04-27T03:55:32.317Z,99771.55
2019-04-27T03:58:11.786Z,99771.75
2019-04-27T04:00:40.026Z,99767.60
2019-04-27T04:03:10.830Z,99763.58
2019-04-27T04:05:41.382Z,99762.75
2019-04-27T04:08:12.071Z,99769.02
2019-04-27T04:10:49.976Z,99762.67
2019-04-27T04:13:22.623Z,99764.20
2019-04-27T04:16:07.500Z,99760.14
2019-04-27T04:18:54.563Z,99759.25
2019-04-27T04:21:25.485Z,99755.45
2019-04-27T04:23:56.221Z,99752.62
2019-04-27T04:26:31.883Z,99755.69
2019-04-27T04:28:59.929Z,99750.79
2019-04-27T04:31:33.230Z,99753.08
2019-04-27T04:34:03.153Z,99751.80
2019-04-27T04:36:33.880Z,99756.52
2019-04-27T04:39:07.100Z,99755.46
2019-04-27T04:41:45.302Z,99748.11
2019-04-27T04:44:30.204Z,99757.89
2019-04-27T04:47:02.558Z,99751.39
2019-04-27T04:49:33.210Z,99751.13
2019-04-27T04:52:03.779Z,99752.75
2019-04-27T04:54:34.425Z,99750.21
2019-04-27T04:57:05.153Z,99745.11
2019-04-27T04:59:35.749Z,99745.11
2019-04-27T05:02:06.405Z,99736.23
2019-04-27T05:04:37.041Z,99736.23
2019-04-27T05:07:09.234Z,99741.20
2019-04-27T05:09:39.941Z,99741.12
2019-04-27T05:12:10.645Z,99747.86
2019-04-27T05:14:41.321Z,99757.21
2019-04-27T05:17:12.038Z,99750.95
2019-04-27T05:19:43.257Z,99756.97
2019-04-27T05:22:13.895Z,99747.50
2019-04-27T05:24:44.554Z,99744.88
2019-04-27T05:27:15.258Z,99739.91
2019-04-27T05:29:45.899Z,99743.03
2019-04-27T05:32:16.505Z,99739.41
2019-04-27T05:34:49.499Z,99735.28
2019-04-27T05:37:27.674Z,99736.01
2019-04-27T05:39:52.178Z,99728.92
2019-04-27T05:42:22.838Z,99734.10
2019-04-27T05:45:02.772Z,99732.18
2019-04-27T05:47:39.261Z,99731.97
2019-04-27T05:50:17.725Z,99736.73
2019-04-27T05:52:46.109Z,99734.45
2019-04-27T05:55:19.185Z,99744.16
2019-04-27T05:57:50.077Z,99745.33
2019-04-27T06:00:21.775Z,99744.10
2019-04-27T06:02:52.451Z,99737.13
2019-04-27T06:05:23.245Z,99734.83
2019-04-27T06:07:53.931Z,99743.05
2019-04-27T06:10:24.572Z,99747.44
2019-04-27T06:12:55.413Z,99742.86
2019-04-27T06:15:26.137Z,99735.34
2019-04-27T06:17:56.909Z,99740.89
2019-04-27T06:20:28.596Z,99739.38
2019-04-27T06:22:59.330Z,99739.77
2019-04-27T06:25:30.608Z,99736.01
2019-04-27T06:28:01.488Z,99736.50
2019-04-27T06:30:32.333Z,99733.81
2019-04-27T06:33:03.044Z,99737.97
2019-04-27T06:35:33.760Z,99749.30
2019-04-27T06:38:04.392Z,99739.84
2019-04-27T06:40:35.528Z,99736.46
2019-04-27T06:43:06.298Z,99737.88
2019-04-27T06:45:38.649Z,99733.95
2019-04-27T06:48:09.633Z,99743.97
2019-04-27T06:50:40.402Z,99729.84
2019-04-27T06:53:11.134Z,99740.89
2019-04-27T06:55:41.867Z,99743.27
2019-04-27T06:58:12.659Z,99746.16
2019-04-27T07:00:43.320Z,99734.28
2019-04-27T07:03:13.943Z,99735.31
2019-04-27T07:05:44.524Z,99742.85
2019-04-27T07:08:15.236Z,99731.57
2019-04-27T07:10:45.861Z,99732.55
2019-04-27T07:13:16.688Z,99734.19
2019-04-27T07:15:48.535Z,99725.39
2019-04-27T07:18:20.729Z,99727.85
2019-04-27T07:20:51.271Z,99728.58
2019-04-27T07:23:22.014Z,99719.67
2019-04-27T07:25:52.670Z,99725.14
2019-04-27T07:28:24.499Z,99717.50
2019-04-27T07:30:58.743Z,99723.12
2019-04-27T07:33:29.705Z,99712.49
2019-04-27T07:36:00.457Z,99713.99
2019-04-27T07:38:31.084Z,99711.89
2019-04-27T07:41:01.816Z,99709.34
2019-04-27T07:43:40.248Z,99710.92
2019-04-27T07:46:10.857Z,99710.18
2019-04-27T07:48:41.485Z,99713.66
2019-04-27T07:51:12.652Z,99709.94
2019-04-27T07:53:43.276Z,99708.48
2019-04-27T07:56:13.884Z,99706.99
2019-04-27T07:58:44.691Z,99704.66
2019-04-27T08:01:15.360Z,99701.76
2019-04-27T08:03:46.093Z,99707.45
2019-04-27T08:06:18.835Z,99705.22
2019-04-27T08:08:49.363Z,99701.23
2019-04-27T08:11:20.300Z,99699.56
2019-04-27T08:13:50.979Z,99696.37
2019-04-27T08:16:21.624Z,99692.03
2019-04-27T08:18:52.259Z,99688.35
2019-04-27T08:21:22.994Z,99690.75
2019-04-27T08:23:53.610Z,99698.63
2019-04-27T08:26:25.800Z,99690.38
2019-04-27T08:29:14.431Z,99685.83
2019-04-27T08:31:49.576Z,99685.73
2019-04-27T08:34:37.073Z,99678.91
2019-04-27T08:37:11.285Z,99676.67
2019-04-27T08:39:41.941Z,99675.63
2019-04-27T08:42:12.548Z,99672.28
2019-04-27T08:44:43.195Z,99673.63
2019-04-27T08:47:13.830Z,99676.75
2019-04-27T08:49:44.466Z,99668.69
2019-04-27T08:52:15.096Z,99671.28
2019-04-27T08:54:45.841Z,99659.84
2019-04-27T08:57:18.658Z,99657.50
2019-04-27T08:59:51.085Z,99655.03
2019-04-27T09:02:21.795Z,99659.23
2019-04-27T09:04:54.320Z,99650.64
2019-04-27T09:07:32.429Z,99661.18
2019-04-27T09:10:10.882Z,99657.53
2019-04-27T09:12:45.849Z,99654.71
2019-04-27T09:15:33.038Z,99651.83
2019-04-27T09:18:04.117Z,99644.92
2019-04-27T09:20:45.948Z,99648.27
2019-04-27T09:23:19.078Z,99635.67
2019-04-27T09:25:50.699Z,99640.52
2019-04-27T09:28:21.898Z,99633.45
2019-04-27T09:30:52.714Z,99630.06
2019-04-27T09:33:23.380Z,99629.26
2019-04-27T09:35:54.215Z,99632.34
2019-04-27T09:38:26.426Z,99624.19
2019-04-27T09:40:58.069Z,99615.68
2019-04-27T09:43:32.705Z,99618.16
2019-04-27T09:46:03.546Z,99615.00
2019-04-27T09:48:36.498Z,99614.23
2019-04-27T09:51:07.276Z,99606.19
2019-04-27T09:53:37.960Z,99600.34
2019-04-27T09:56:11.115Z,99609.33
2019-04-27T09:58:49.394Z,99602.59
2019-04-27T10:01:26.488Z,99595.22
2019-04-27T10:03:57.406Z,99592.31
2019-04-27T10:06:31.414Z,99596.27
2019-04-27T10:09:03.660Z,99596.30
2019-04-27T10:11:35.663Z,99587.94
2019-04-27T10:14:06.321Z,99593.03
2019-04-27T10:16:37.628Z,99588.18
2019-04-27T10:19:08.770Z,99591.27
2019-04-27T10:21:39.427Z,99585.19
2019-04-27T10:24:10.063Z,99588.40
2019-04-27T10:26:43.786Z,99589.76
2019-04-27T10:29:16.112Z,99586.91
2019-04-27T10:31:48.214Z,99577.97
2019-04-27T10:34:19.442Z,99575.48
2019-04-27T10:36:50.065Z,99577.70
2019-04-27T10:39:20.969Z,99578.95
2019-04-27T10:41:53.647Z,99581.08
2019-04-27T10:44:26.761Z,99574.23
2019-04-27T10:46:57.561Z,99569.81
2019-04-27T10:49:28.360Z,99566.69
2019-04-27T10:52:00.091Z,99568.52
2019-04-27T10:54:35.183Z,99567.28
2019-04-27T10:57:06.158Z,99560.38
2019-04-27T10:59:36.953Z,99570.94
2019-04-27T11:02:07.617Z,99560.56
2019-04-27T11:04:56.633Z,99557.95
2019-04-27T11:07:29.570Z,99551.91
2019-04-27T11:10:00.171Z,99550.91
2019-04-27T11:12:31.006Z,99542.56
2019-04-27T11:15:01.655Z,99536.91
2019-04-27T11:17:36.896Z,99529.37
2019-04-27T11:20:08.371Z,99524.95
2019-04-27T11:22:40.778Z,99530.03
2019-04-27T11:25:15.986Z,99529.37
2019-04-27T11:27:46.800Z,99524.22
2019-04-27T11:30:18.201Z,99518.53
2019-04-27T11:32:49.070Z,99512.17
2019-04-27T11:35:21.393Z,99509.62
2019-04-27T11:37:56.513Z,99512.73
2019-04-27T11:40:39.580Z,99504.38
2019-04-27T11:43:10.289Z,99504.13
2019-04-27T11:45:42.556Z,99502.48
2019-04-27T11:48:16.555Z,99500.95
2019-04-27T11:50:47.338Z,99503.16
2019-04-27T11:53:22.322Z,99496.30
2019-04-27T11:55:52.416Z,99495.89
2019-04-27T11:58:26.415Z,99487.31
2019-04-27T12:00:58.583Z,99487.70
2019-04-27T12:03:29.451Z,99484.55
2019-04-27T12:06:00.408Z,99484.80
2019-04-27T12:08:31.001Z,99476.63
2019-04-27T12:11:01.696Z,99480.08
2019-04-27T12:13:35.931Z,99474.83
2019-04-27T12:16:07.259Z,99473.34
2019-04-27T12:18:37.965Z,99472.17
2019-04-27T12:21:10.273Z,99462.00
2019-04-27T12:23:41.371Z,99459.08
2019-04-27T12:26:18.129Z,99454.19
2019-04-27T12:28:50.570Z,99457.48
2019-04-27T12:31:22.756Z,99446.03
2019-04-27T12:33:53.545Z,99440.75
2019-04-27T12:36:26.290Z,99435.12
2019-04-27T12:38:59.430Z,99441.14
2019-04-27T12:41:30.295Z,99426.36
2019-04-27T12:44:02.497Z,99433.34
2019-04-27T12:46:33.328Z,99424.56
2019-04-27T12:49:05.942Z,99425.62
2019-04-27T12:51:39.257Z,99422.89
2019-04-27T12:54:11.463Z,99411.62
2019-04-27T12:56:45.630Z,99411.93
2019-04-27T12:59:34.026Z,99402.36
2019-04-27T13:02:06.263Z,99404.36
2019-04-27T13:04:38.385Z,99399.12
2019-04-27T13:07:09.298Z,99395.10
2019-04-27T13:09:42.307Z,99398.36
2019-04-27T13:12:14.302Z,99388.39
2019-04-27T13:14:46.490Z,99396.92
2019-04-27T13:17:17.227Z,99394.58
2019-04-27T13:19:47.863Z,99385.95
2019-04-27T13:22:21.910Z,99387.08
2019-04-27T13:24:52.602Z,99381.17
2019-04-27T13:27:27.173Z,99382.33
2019-04-27T13:30:01.155Z,99377.30
2019-04-27T13:32:31.958Z,99374.04
2019-04-27T13:35:02.563Z,99375.16
2019-04-27T13:37:37.499Z,99370.34
2019-04-27T13:40:10.040Z,99371.39
2019-04-27T13:42:46.339Z,99364.34
2019-04-27T13:45:18.506Z,99366.84
2019-04-27T13:47:56.278Z,99364.89
2019-04-27T13:50:35.423Z,99348.06
2019-04-27T13:53:08.411Z,99354.40
2019-04-27T13:55:38.945Z,99352.36
2019-04-27T13:58:11.200Z,99353.02
2019-04-27T14:00:42.005Z,99345.15
2019-04-27T14:03:14.350Z,99348.28
2019-04-27T14:05:45.088Z,99336.88
2019-04-27T14:08:16.895Z,99341.42
2019-04-27T14:10:47.503Z,99335.14
2019-04-27T14:13:19.763Z,99336.15
2019-04-27T14:15:50.557Z,99326.23
2019-04-27T14:18:22.708Z,99329.87
2019-04-27T14:20:55.330Z,99329.54
2019-04-27T14:23:30.627Z,99324.29
2019-04-27T14:26:01.278Z,99326.08
2019-04-27T14:28:32.066Z,99325.50
2019-04-27T14:31:02.769Z,99318.95
2019-04-27T14:33:33.573Z,99319.16
2019-04-27T14:36:05.520Z,99316.42
2019-04-27T14:38:38.638Z,99313.95
2019-04-27T14:41:11.728Z,99313.86
2019-04-27T14:43:45.560Z,99308.19
2019-04-27T14:46:18.795Z,99308.95
2019-04-27T14:48:51.056Z,99305.66
2019-04-27T14:51:24.603Z,99308.86
2019-04-27T14:53:58.879Z,99305.03
2019-04-27T14:56:29.726Z,99299.02
2019-04-27T14:59:02.214Z,99296.81
2019-04-27T15:01:33.107Z,99294.58
2019-04-27T15:04:07.439Z,99288.88
2019-04-27T15:06:38.268Z,99281.62
2019-04-27T15:09:13.401Z,99290.67
2019-04-27T15:11:44.979Z,99281.69
2019-04-27T15:14:16.231Z,99273.95
2019-04-27T15:16:49.762Z,99271.69
2019-04-27T15:19:22.278Z,99270.67
2019-04-27T15:21:58.736Z,99271.18
2019-04-27T15:24:25.380Z,99273.30
2019-04-27T15:27:00.791Z,99264.86
2019-04-27T15:29:29.983Z,99263.94
2019-04-27T15:32:05.130Z,99266.48
2019-04-27T15:34:48.257Z,99263.54
2019-04-27T15:37:20.697Z,99266.80
2019-04-27T15:39:53.129Z,99262.08
2019-04-27T15:42:31.398Z,99257.92
2019-04-27T15:45:08.487Z,99261.63
2019-04-27T15:47:42.441Z,99259.57
2019-04-27T15:50:11.381Z,99260.06
2019-04-27T15:52:48.642Z,99254.50
2019-04-27T15:55:32.073Z,99253.05
2019-04-27T15:57:51.504Z,99258.87
2019-04-27T16:00:28.862Z,99254.16
2019-04-27T16:02:59.800Z,99252.73
2019-04-27T16:05:32.684Z,99255.58
2019-04-27T16:08:05.965Z,99255.72
2019-04-27T16:10:40.274Z,99258.16
2019-04-27T16:13:14.946Z,99246.70
2019-04-27T16:15:42.408Z,99256.71
2019-04-27T16:18:13.260Z,99253.90
2019-04-27T16:20:44.245Z,99254.31
2019-04-27T16:23:19.438Z,99249.66
2019-04-27T16:25:51.504Z,99255.72
2019-04-27T16:28:23.854Z,99254.33
2019-04-27T16:30:55.419Z,99257.94
2019-04-27T16:33:28.800Z,99253.02
2019-04-27T16:36:06.994Z,99253.56
2019-04-27T16:38:38.882Z,99253.22
2019-04-27T16:41:09.470Z,99253.24
2019-04-27T16:43:42.238Z,99253.05
2019-04-27T16:46:12.979Z,99249.17
2019-04-27T16:48:47.283Z,99245.55
2019-04-27T16:51:18.438Z,99248.52
2019-04-27T16:53:49.494Z,99250.11
2019-04-27T16:56:24.421Z,99251.05
2019-04-27T16:58:59.262Z,99254.39
2019-04-27T17:01:30.374Z,99255.53
2019-04-27T17:04:01.734Z,99254.41
2019-04-27T17:06:32.788Z,99250.77
2019-04-27T17:09:09.435Z,99255.03
2019-04-27T17:11:38.954Z,99257.49
2019-04-27T17:14:28.939Z,99256.47
2019-04-27T17:17:07.928Z,99266.64
2019-04-27T17:19:43.722Z,99268.89
2019-04-27T17:22:14.617Z,99269.50
2019-04-27T17:24:49.305Z,99270.91
2019-04-27T17:27:28.778Z,99271.88
2019-04-27T17:29:58.424Z,99269.11
2019-04-27T17:32:30.331Z,99266.41
2019-04-27T17:35:05.031Z,99264.59
2019-04-27T17:37:34.639Z,99271.77
2019-04-27T17:40:05.887Z,99273.69
2019-04-27T17:42:36.551Z,99272.70
2019-04-27T17:45:08.995Z,99275.80
2019-04-27T17:47:41.291Z,99276.68
2019-04-27T17:50:13.570Z,99280.10
2019-04-27T17:52:48.431Z,99278.58
2019-04-27T17:55:17.803Z,99276.43
2019-04-27T17:57:49.280Z,99278.19
2019-04-27T18:00:22.784Z,99278.44
2019-04-27T18:02:55.109Z,99280.19
2019-04-27T18:05:26.001Z,99280.15
2019-04-27T18:07:57.994Z,99282.61
2019-04-27T18:10:29.311Z,99285.03
2019-04-27T18:13:00.194Z,99288.05
2019-04-27T18:15:31.051Z,99286.59
2019-04-27T18:18:03.209Z,99284.63
2019-04-27T18:20:33.928Z,99284.56
2019-04-27T18:23:15.077Z,99281.99
2019-04-27T18:25:48.055Z,99275.78
2019-04-27T18:28:23.386Z,99280.69
2019-04-27T18:31:01.736Z,99289.45
2019-04-27T18:33:37.091Z,99283.48
2019-04-27T18:36:12.597Z,99292.03
2019-04-27T18:38:39.313Z,99287.80
2019-04-27T18:41:12.105Z,99280.91
2019-04-27T18:43:50.611Z,99279.01
2019-04-27T18:46:19.199Z,99275.05
2019-04-27T18:48:50.269Z,99275.70
2019-04-27T18:51:32.362Z,99270.28
2019-04-27T18:54:03.719Z,99267.27
2019-04-27T18:56:38.460Z,99268.75
2019-04-27T18:59:08.331Z,99278.34
2019-04-27T19:01:39.087Z,99269.45
2019-04-27T19:04:09.910Z,99270.61
2019-04-27T19:06:40.634Z,99263.81
2019-04-27T19:09:11.751Z,99262.25
2019-04-27T19:11:53.443Z,99259.59
2019-04-27T19:14:14.700Z,99259.91
2019-04-27T19:16:45.297Z,99263.05
2019-04-27T19:19:16.056Z,99257.22
2019-04-27T19:21:48.631Z,99261.43
2019-04-27T19:24:19.379Z,99261.43
2019-04-27T19:26:51.650Z,99257.39
2019-04-27T19:29:26.606Z,99258.12
2019-04-27T19:31:58.781Z,99257.16
2019-04-27T19:34:29.578Z,99252.23
2019-04-27T19:37:00.351Z,99249.89
2019-04-27T19:39:31.215Z,99251.03
2019-04-27T19:42:03.825Z,99245.52
2019-04-27T19:44:34.302Z,99245.20
2019-04-27T19:47:05.937Z,99246.71
2019-04-27T19:49:38.709Z,99252.61
2019-04-27T19:52:09.012Z,99242.89
2019-04-27T19:54:39.986Z,99240.36
2019-04-27T19:57:10.706Z,99241.70
2019-04-27T19:59:43.006Z,99237.95
2019-04-27T20:02:15.229Z,99240.36
2019-04-27T20:04:50.047Z,99236.99
2019-04-27T20:07:20.877Z,99238.70
2019-04-27T20:09:58.227Z,99238.34
2019-04-27T20:12:28.801Z,99237.13
2019-04-27T20:14:59.436Z,99237.52
2019-04-27T20:17:32.033Z,99239.82
2019-04-27T20:20:02.750Z,99235.65
2019-04-27T20:22:33.506Z,99237.44
2019-04-27T20:25:05.635Z,99236.55
2019-04-27T20:27:46.070Z,99243.41
2019-04-27T20:30:11.234Z,99244.31
2019-04-27T20:32:42.149Z,99245.20
2019-04-27T20:35:12.754Z,99248.89
2019-04-27T20:37:43.340Z,99253.89
2019-04-27T20:40:14.567Z,99250.00
2019-04-27T20:42:45.197Z,99251.48
2019-04-27T20:45:15.906Z,99253.30
2019-04-27T20:47:46.496Z,99251.72
2019-04-27T20:50:17.198Z,99256.15
2019-04-27T20:52:49.470Z,99260.19
2019-04-27T20:55:21.355Z,99254.50
2019-04-27T20:57:59.619Z,99248.64
2019-04-27T21:00:24.411Z,99244.16
2019-04-27T21:02:56.644Z,99245.56
2019-04-27T21:05:38.186Z,99245.05
2019-04-27T21:08:20.876Z,99239.12
2019-04-27T21:10:51.702Z,99239.10
2019-04-27T21:13:22.865Z,99235.64
2019-04-27T21:15:53.686Z,99232.39
2019-04-27T21:18:24.340Z,99235.64
2019-04-27T21:20:55.072Z,99240.42
2019-04-27T21:23:25.688Z,99237.80
2019-04-27T21:25:56.473Z,99242.60
2019-04-27T21:28:27.154Z,99245.66
2019-04-27T21:30:57.784Z,99241.94
2019-04-27T21:33:28.508Z,99246.42
2019-04-27T21:35:59.157Z,99243.05
2019-04-27T21:38:30.855Z,99248.73
2019-04-27T21:41:01.690Z,99249.69
2019-04-27T21:43:32.814Z,99243.27
2019-04-27T21:46:03.518Z,99246.25
2019-04-27T21:48:34.166Z,99246.19
2019-04-27T21:51:04.756Z,99245.63
2019-04-27T21:53:41.176Z,99242.05
2019-04-27T21:56:12.616Z,99248.05
2019-04-27T21:58:43.240Z,99248.78
2019-04-27T22:01:15.388Z,99243.03
2019-04-27T22:03:46.025Z,99244.38
2019-04-27T22:06:16.779Z,99243.92
2019-04-27T22:08:47.438Z,99241.08
2019-04-27T22:11:18.034Z,99240.39
2019-04-27T22:13:48.703Z,99239.34
2019-04-27T22:16:21.110Z,99229.23
2019-04-27T22:18:52.088Z,99228.04
2019-04-27T22:21:22.730Z,99230.60
2019-04-27T22:23:55.100Z,99222.45
2019-04-27T22:26:25.918Z,99221.02
2019-04-27T22:28:56.649Z,99228.21
2019-04-27T22:31:27.517Z,99223.09
2019-04-27T22:33:58.351Z,99219.72
2019-04-27T22:36:29.048Z,99211.64
2019-04-27T22:39:01.699Z,99211.71
2019-04-27T22:41:46.299Z,99217.86
2019-04-27T22:44:31.718Z,99211.69
2019-04-27T22:47:02.475Z,99213.89
2019-04-27T22:49:33.273Z,99208.12
2019-04-27T22:52:04.074Z,99203.06
2019-04-27T22:54:34.913Z,99199.16
2019-04-27T22:57:07.235Z,99201.84
2019-04-27T22:59:42.470Z,99201.27
2019-04-27T23:02:29.309Z,99196.84
2019-04-27T23:05:01.982Z,99196.08
2019-04-27T23:07:32.949Z,99194.81
2019-04-27T23:10:04.792Z,99194.64
2019-04-27T23:12:35.447Z,99196.30
2019-04-27T23:15:08.889Z,99201.22
2019-04-27T23:17:41.637Z,99197.84
2019-04-27T23:20:12.332Z,99201.48
2019-04-27T23:22:42.908Z,99212.98
2019-04-27T23:25:13.609Z,99198.72
2019-04-27T23:27:44.300Z,99192.66
2019-04-27T23:30:15.736Z,99191.25
2019-04-27T23:32:51.450Z,99191.79
2019-04-27T23:35:22.357Z,99195.42
2019-04-27T23:37:53.347Z,99199.06
2019-04-27T23:40:25.601Z,99197.03
2019-04-27T23:42:56.434Z,99189.06
2019-04-27T23:45:27.023Z,99197.12
2019-04-27T23:47:57.687Z,99184.38
2019-04-27T23:50:31.367Z,99187.79
2019-04-27T23:53:03.689Z,99184.73
2019-04-27T23:55:35.982Z,99181.75
2019-04-27T23:58:06.648Z,99178.89
